Terminal Aerodrome Forecast
Issued by NWS

Home | Current Version | Previous Version | Text Only | Print | Product List | Glossary On
Versions: 1 2 3 4 5 6 7 8 9 10 11 12 13 14 15 16 17 18 19 20 21 22 23 24 25 26 27 28 29
000
FTUS42 KCAE 230200 AAA
TAFOGB
TAF AMD
KOGB 230248Z 2303/2324 07003KT 2SM -DZ BR OVC002
      TEMPO 2303/2306 1 1/2SM BR
     FM230600 VRB03KT 1 1/2SM -DZ BR OVC002
     FM231800 07005KT 2SM RA BR OVC007=

USA.gov is the U.S. government's official web portal to all federal, state and local government web resources and services.